createdAt,value
2023-01-26T07:35:36.819Z,-15.82
2023-01-26T07:40:40.148Z,-15.77
2023-01-26T07:45:45.879Z,-15.71
2023-01-26T07:50:50.763Z,-15.66
2023-01-26T07:55:54.288Z,-15.63
2023-01-26T08:00:57.683Z,-15.79
2023-01-26T08:06:02.747Z,-15.68
2023-01-26T08:11:06.634Z,-15.73
2023-01-26T08:16:12.443Z,-15.96
2023-01-26T08:21:18.505Z,-16.37
2023-01-26T08:26:22.066Z,-16.24
2023-01-26T08:31:25.712Z,-16.13
2023-01-26T08:36:30.524Z,-16.00
2023-01-26T08:41:34.155Z,-15.88
2023-01-26T08:46:37.624Z,-15.73
2023-01-26T08:51:42.368Z,-15.86
2023-01-26T08:56:45.996Z,-15.76
2023-01-26T09:02:01.120Z,-15.76
2023-01-26T09:07:07.358Z,-15.78
2023-01-26T09:12:12.779Z,-15.57
2023-01-26T09:17:16.488Z,-15.23
2023-01-26T09:22:21.600Z,-15.21
2023-01-26T09:27:25.137Z,-15.47
2023-01-26T09:32:28.509Z,-15.58
2023-01-26T09:37:33.302Z,-15.59
2023-01-26T09:42:40.945Z,-15.73
2023-01-26T09:47:52.796Z,-15.75
2023-01-26T09:53:02.756Z,-16.25
2023-01-26T09:58:08.222Z,-16.28
2023-01-26T10:03:18.333Z,-16.20
2023-01-26T10:08:25.018Z,-16.40
2023-01-26T10:13:29.030Z,-16.36
2023-01-26T10:18:34.341Z,-16.04
2023-01-26T10:23:46.755Z,-15.97
2023-01-26T10:28:51.682Z,-15.98
2023-01-26T10:33:56.626Z,-15.89
2023-01-26T10:39:06.645Z,-15.82
2023-01-26T10:44:24.223Z,-16.38
2023-01-26T10:49:28.437Z,-16.31
2023-01-26T10:54:37.133Z,-16.16
2023-01-26T10:59:46.267Z,-15.90
2023-01-26T11:05:08.540Z,-15.94
2023-01-26T11:10:33.982Z,-15.74
2023-01-26T11:15:39.597Z,-16.57
2023-01-26T11:20:49.797Z,-16.17
2023-01-26T11:26:11.334Z,-16.12
2023-01-26T11:31:22.709Z,-16.01
2023-01-26T11:36:34.590Z,-16.44
2023-01-26T11:41:44.540Z,-16.21
2023-01-26T11:47:00.681Z,-16.54
2023-01-26T11:52:10.561Z,-15.94
2023-01-26T11:57:27.737Z,-15.63
2023-01-26T12:02:34.233Z,-15.74
2023-01-26T12:07:59.979Z,-15.80
2023-01-26T12:13:09.421Z,-16.15
2023-01-26T12:18:20.456Z,-16.42
2023-01-26T12:23:29.402Z,-16.27
2023-01-26T12:28:37.486Z,-15.99
2023-01-26T12:33:44.901Z,-16.54
2023-01-26T12:38:54.815Z,-16.69
2023-01-26T12:44:05.828Z,-16.61
2023-01-26T12:49:18.631Z,-16.23
2023-01-26T12:54:30.022Z,-16.37
2023-01-26T12:59:46.860Z,-16.58
2023-01-26T13:04:53.765Z,-16.57
2023-01-26T13:10:11.815Z,-16.67
2023-01-26T13:15:18.537Z,-16.79
2023-01-26T13:20:28.813Z,-16.65
2023-01-26T13:25:34.292Z,-16.90
2023-01-26T13:30:44.421Z,-16.61
2023-01-26T13:35:49.828Z,-16.54
2023-01-26T13:40:53.380Z,-16.86
2023-01-26T13:46:16.206Z,-17.02
2023-01-26T13:51:23.347Z,-16.78
2023-01-26T13:56:28.366Z,-16.89
2023-01-26T14:01:34.437Z,-16.63
2023-01-26T14:06:43.180Z,-16.53
2023-01-26T14:11:48.109Z,-16.36
2023-01-26T14:16:54.129Z,-16.55
2023-01-26T14:22:02.288Z,-16.68
2023-01-26T14:27:19.431Z,-16.63
2023-01-26T14:32:25.443Z,-16.44
2023-01-26T14:37:30.391Z,-16.67
2023-01-26T14:42:33.739Z,-16.77
2023-01-26T14:47:37.297Z,-16.77
2023-01-26T14:52:45.335Z,-16.68
2023-01-26T14:57:49.229Z,-16.48
2023-01-26T15:02:54.405Z,-16.49
2023-01-26T15:08:02.420Z,-16.41
2023-01-26T15:13:09.387Z,-16.43
2023-01-26T15:18:21.910Z,-16.48
2023-01-26T15:23:28.257Z,-16.83
2023-01-26T15:28:32.226Z,-16.83
2023-01-26T15:33:45.994Z,-16.70
2023-01-26T15:38:50.980Z,-16.56
2023-01-26T15:43:54.692Z,-16.81
2023-01-26T15:49:14.480Z,-16.63
2023-01-26T15:54:21.391Z,-16.44
2023-01-26T15:59:26.217Z,-16.36
2023-01-26T16:04:32.681Z,-16.26
2023-01-26T16:10:10.867Z,-16.18
2023-01-26T16:15:23.058Z,-16.22
2023-01-26T16:20:27.616Z,-16.20
2023-01-26T16:25:33.163Z,-16.25
2023-01-26T16:30:36.723Z,-16.11
2023-01-26T16:35:40.183Z,-16.24
2023-01-26T16:40:46.252Z,-16.30
2023-01-26T16:45:54.036Z,-16.18
2023-01-26T16:50:58.119Z,-16.11
2023-01-26T16:56:07.125Z,-16.15
2023-01-26T17:01:17.314Z,-16.59
2023-01-26T17:06:21.516Z,-16.48
2023-01-26T17:11:28.072Z,-16.74
2023-01-26T17:22:28.269Z,-16.46
2023-01-26T17:27:35.915Z,-16.36
2023-01-26T17:32:40.659Z,-16.37
2023-01-26T17:37:44.567Z,-16.46
2023-01-26T17:42:49.542Z,-16.34
2023-01-26T17:47:54.060Z,-16.79
2023-01-26T17:52:57.944Z,-16.77
2023-01-26T17:58:02.896Z,-16.80
2023-01-26T18:03:06.685Z,-16.88
2023-01-26T18:08:10.047Z,-17.07
2023-01-26T18:13:15.454Z,-17.23
2023-01-26T18:18:18.868Z,-16.86
2023-01-26T18:23:23.215Z,-16.68
2023-01-26T18:28:30.277Z,-16.38
2023-01-26T18:33:33.735Z,-16.31
2023-01-26T18:38:39.979Z,-16.42
2023-01-26T18:43:45.194Z,-16.86
2023-01-26T18:48:49.183Z,-16.85
2023-01-26T18:53:54.719Z,-16.87
2023-01-26T18:59:02.577Z,-16.80
2023-01-26T19:04:07.268Z,-16.59
2023-01-26T19:09:11.729Z,-16.96
2023-01-26T19:14:21.006Z,-16.92
2023-01-26T19:19:24.920Z,-16.87
2023-01-26T19:24:28.921Z,-16.77
2023-01-26T19:29:36.363Z,-16.68
2023-01-26T19:34:39.950Z,-16.69
2023-01-26T19:39:45.682Z,-16.97
2023-01-26T19:45:14.904Z,-17.15
2023-01-26T19:50:23.855Z,-16.89
2023-01-26T19:55:30.775Z,-16.71
2023-01-26T20:00:35.806Z,-16.61
2023-01-26T20:05:40.194Z,-16.78
2023-01-26T20:10:44.023Z,-17.04
2023-01-26T20:15:50.744Z,-16.69
2023-01-26T20:20:55.897Z,-16.83
2023-01-26T20:26:03.545Z,-16.98
2023-01-26T20:31:10.097Z,-16.76
2023-01-26T20:36:16.778Z,-16.76
2023-01-26T20:41:23.760Z,-16.98
2023-01-26T20:46:35.458Z,-16.99
2023-01-26T20:51:42.694Z,-17.15
2023-01-26T20:56:46.943Z,-17.08
2023-01-26T21:01:52.999Z,-16.91
2023-01-26T21:06:56.467Z,-16.79
2023-01-26T21:12:06.055Z,-16.66
2023-01-26T21:17:10.890Z,-16.36
2023-01-26T21:22:18.945Z,-16.14
2023-01-26T21:27:22.431Z,-16.48
2023-01-26T21:32:27.311Z,-16.23
2023-01-26T21:37:30.876Z,-16.56
2023-01-26T21:42:35.188Z,-16.88
2023-01-26T21:47:42.320Z,-16.85
2023-01-26T21:53:00.957Z,-16.78
2023-01-26T21:58:22.074Z,-16.79
2023-01-26T22:03:26.931Z,-16.86
2023-01-26T22:08:30.526Z,-16.94
2023-01-26T22:13:35.793Z,-16.89
2023-01-26T22:18:40.859Z,-16.93
2023-01-26T22:23:44.446Z,-16.95
2023-01-26T22:28:51.169Z,-16.99
2023-01-26T22:33:57.170Z,-16.92
2023-01-26T22:39:01.055Z,-16.83
2023-01-26T22:44:04.633Z,-16.88
2023-01-26T22:49:10.571Z,-16.73
2023-01-26T22:54:15.096Z,-16.91
2023-01-26T22:59:18.622Z,-16.60
2023-01-26T23:04:23.680Z,-16.38
2023-01-26T23:09:27.276Z,-16.57
